Time;durP1;ratioP1;P1;durP2;ratioP2;P2;SDS_P1;SDS_P2;PMS_P1;PMS_P2;Temp;Humidity;BMP_temperature;BMP_pressure;BME280_temperature;BME280_humidity;BME280_pressure;Samples;Min_cycle;Max_cycle;Signal;HPM_P1;HPM_P2
2021/11/15 00:01:56;;;;;;;55.57;33.20;;;;;;;7.40;72.36;102637.06;5021256;28;20437;-67
2021/11/15 00:04:22;;;;;;;57.30;32.60;;;;;;;7.18;72.67;102635.00;5038585;28;20889;-67
2021/11/15 00:06:47;;;;;;;50.27;28.37;;;;;;;6.98;73.21;102636.53;5037901;28;20427;-67
2021/11/15 00:09:13;;;;;;;55.80;32.83;;;;;;;7.62;71.59;102634.69;5037884;28;20231;-65
2021/11/15 00:11:38;;;;;;;55.47;29.80;;;;;;;6.98;73.94;102623.56;5038346;28;20431;-66
2021/11/15 00:14:04;;;;;;;58.90;30.93;;;;;;;6.71;74.94;102629.00;5020999;28;20193;-66
2021/11/15 00:16:30;;;;;;;58.33;32.70;;;;;;;7.21;73.29;102630.00;5020731;28;20416;-66
2021/11/15 00:18:55;;;;;;;64.27;34.30;;;;;;;7.86;71.29;102617.78;5038348;28;20509;-64
2021/11/15 00:21:21;;;;;;;55.90;31.67;;;;;;;7.67;71.86;102617.66;5020606;28;20170;-66
2021/11/15 00:23:46;;;;;;;58.13;33.33;;;;;;;7.88;71.27;102618.75;5020658;28;20253;-66
2021/11/15 00:26:11;;;;;;;62.63;30.37;;;;;;;7.48;72.75;102610.59;5037876;28;20562;-66
2021/11/15 00:28:38;;;;;;;58.13;33.40;;;;;;;7.92;70.96;102607.69;5037863;28;20221;-66
2021/11/15 00:31:04;;;;;;;64.47;30.80;;;;;;;7.13;73.47;102613.13;5037649;28;20218;-66
2021/11/15 00:33:29;;;;;;;59.37;31.53;;;;;;;7.54;72.31;102603.16;5037964;28;20457;-66
2021/11/15 00:35:54;;;;;;;58.70;32.77;;;;;;;7.42;72.34;102609.47;5037507;28;20266;-66
2021/11/15 00:38:20;;;;;;;61.90;32.53;;;;;;;7.73;72.13;102608.47;5034927;28;20204;-66
2021/11/15 00:40:46;;;;;;;67.63;36.67;;;;;;;7.52;72.11;102605.69;5018446;28;20237;-65
2021/11/15 00:43:11;;;;;;;60.40;32.00;;;;;;;7.01;73.02;102618.53;5017835;28;20171;-64
2021/11/15 00:45:38;;;;;;;61.03;31.37;;;;;;;7.36;72.49;102611.75;5017799;28;20820;-65
2021/11/15 00:48:04;;;;;;;61.60;32.00;;;;;;;7.29;73.22;102596.66;5018321;28;20155;-66
2021/11/15 00:50:30;;;;;;;64.93;34.97;;;;;;;7.41;72.63;102612.91;5017716;28;20429;-66
2021/11/15 00:52:55;;;;;;;60.00;32.40;;;;;;;7.65;72.10;102598.53;5033873;28;20448;-65
2021/11/15 00:55:20;;;;;;;62.03;33.00;;;;;;;7.86;72.00;102604.81;5038386;28;20555;-65
2021/11/15 00:57:46;;;;;;;69.87;33.50;;;;;;;7.22;73.04;102607.53;5037294;28;20225;-64
2021/11/15 01:00:18;;;;;;;65.53;34.30;;;;;;;7.70;72.35;102603.13;5037607;28;20185;-65
2021/11/15 01:02:44;;;;;;;66.17;35.33;;;;;;;7.43;72.09;102605.19;5039232;28;20380;-66
2021/11/15 01:05:09;;;;;;;65.60;33.17;;;;;;;7.84;71.37;102610.75;5041152;28;20420;-68
2021/11/15 01:07:35;;;;;;;57.77;32.67;;;;;;;7.23;73.16;102609.31;5026608;28;20273;-66
2021/11/15 01:10:00;;;;;;;67.70;33.63;;;;;;;7.12;73.88;102603.56;5062615;28;20189;-68
2021/11/15 01:12:25;;;;;;;71.20;33.33;;;;;;;6.85;74.65;102600.34;5043419;28;20174;-66
2021/11/15 01:14:51;;;;;;;60.90;31.57;;;;;;;7.19;73.77;102602.19;5042890;28;20170;-66
2021/11/15 01:17:17;;;;;;;61.87;32.00;;;;;;;7.48;72.85;102595.94;5041200;28;20198;-67
2021/11/15 01:19:42;;;;;;;68.83;34.27;;;;;;;7.58;72.53;102597.31;5040932;28;20182;-68
2021/11/15 01:22:07;;;;;;;60.97;31.97;;;;;;;7.22;73.76;102602.34;5040854;28;20531;-69
2021/11/15 01:24:32;;;;;;;37.87;21.10;;;;;;;11.54;86.73;102578.91;5023904;28;20244;-65
2021/11/15 01:26:58;;;;;;;36.27;22.23;;;;;;;13.57;71.00;102567.75;5041114;28;20182;-65
2021/11/15 01:29:23;;;;;;;55.37;30.30;;;;;;;10.20;62.21;102579.00;5040804;28;20180;-71
2021/11/15 01:31:48;;;;;;;61.87;33.07;;;;;;;9.06;66.48;102588.03;5040807;28;20265;-66
2021/11/15 01:34:14;;;;;;;58.17;31.37;;;;;;;8.07;69.48;102594.59;5040531;28;20240;-66
2021/11/15 01:36:39;;;;;;;64.70;33.10;;;;;;;8.31;69.74;102591.44;5040489;28;20178;-67
2021/11/15 01:39:05;;;;;;;73.60;35.13;;;;;;;8.16;70.86;102590.66;5040845;28;20194;-67
2021/11/15 01:41:31;;;;;;;64.00;34.33;;;;;;;8.45;69.71;102592.13;5040349;28;20178;-67
2021/11/15 01:43:57;;;;;;;62.20;35.77;;;;;;;8.36;69.89;102596.84;5040358;28;20799;-67
2021/11/15 01:46:22;;;;;;;62.30;33.07;;;;;;;8.33;70.45;102601.91;5040805;28;20507;-67
2021/11/15 01:48:48;;;;;;;67.50;32.83;;;;;;;7.70;72.26;102605.72;5040292;28;20269;-66
2021/11/15 01:51:13;;;;;;;63.07;33.30;;;;;;;8.38;70.86;102608.22;5040156;28;20205;-65
2021/11/15 01:53:38;;;;;;;70.30;35.87;;;;;;;7.92;71.54;102612.91;5040476;28;20409;-65
2021/11/15 01:56:04;;;;;;;69.33;34.23;;;;;;;7.65;72.26;102604.59;5022928;28;20174;-66
2021/11/15 01:58:30;;;;;;;60.53;32.20;;;;;;;7.25;73.21;102615.47;5040091;28;20210;-65
2021/11/15 02:00:58;;;;;;;69.70;36.40;;;;;;;7.01;74.85;102613.34;5040261;28;20249;-65
2021/11/15 02:03:25;;;;;;;66.53;35.20;;;;;;;7.51;72.98;102610.75;5040105;28;20174;-65
2021/11/15 02:05:50;;;;;;;60.27;31.90;;;;;;;7.80;71.86;102616.59;5022840;28;20478;-66
2021/11/15 02:08:16;;;;;;;54.80;29.10;;;;;;;7.18;72.48;102613.34;5040287;28;20413;-66
2021/11/15 02:10:42;;;;;;;57.73;30.80;;;;;;;7.60;72.11;102606.06;5039907;28;20181;-66
2021/11/15 02:13:07;;;;;;;71.10;33.00;;;;;;;7.90;70.74;102611.94;5022121;28;20483;-66
2021/11/15 02:15:34;;;;;;;63.63;34.97;;;;;;;7.95;70.37;102617.34;5040357;28;20551;-66
2021/11/15 02:17:59;;;;;;;67.00;35.70;;;;;;;7.27;73.48;102620.75;5039832;28;20205;-65
2021/11/15 02:20:26;;;;;;;62.63;34.67;;;;;;;7.75;71.62;102621.53;5039754;28;20546;-66
2021/11/15 02:22:53;;;;;;;66.23;34.80;;;;;;;8.16;69.42;102614.03;5022890;28;20167;-66
2021/11/15 02:25:23;;;;;;;63.00;34.53;;;;;;;7.30;73.21;102616.59;5039573;28;20421;-65
2021/11/15 02:27:49;;;;;;;67.13;35.30;;;;;;;7.02;74.49;102615.13;5039512;28;20396;-65
2021/11/15 02:30:18;;;;;;;68.43;34.30;;;;;;;7.96;71.44;102608.75;5040002;28;20411;-65
2021/11/15 02:32:44;;;;;;;63.57;35.40;;;;;;;7.07;73.73;102615.38;5022302;28;20800;-65
2021/11/15 02:35:10;;;;;;;76.13;35.30;;;;;;;7.11;74.34;102608.66;5039460;28;20421;-65
2021/11/15 02:37:36;;;;;;;58.83;32.63;;;;;;;7.57;72.73;102605.91;5039762;28;20205;-66
2021/11/15 02:40:05;;;;;;;77.77;35.33;;;;;;;6.97;73.89;102606.22;5039390;28;20421;-66
2021/11/15 02:42:30;;;;;;;60.97;33.13;;;;;;;7.28;73.24;102606.94;5038926;28;20395;-65
2021/11/15 02:44:56;;;;;;;64.07;35.43;;;;;;;7.28;73.20;102605.28;5039772;28;20648;-65
2021/11/15 02:47:21;;;;;;;68.63;35.83;;;;;;;7.29;73.90;102606.16;5039176;28;20181;-66
2021/11/15 02:49:47;;;;;;;67.53;35.17;;;;;;;7.10;74.21;102606.88;5039233;28;20544;-65
2021/11/15 02:52:14;;;;;;;62.00;33.97;;;;;;;7.47;73.34;102603.63;5039146;28;20222;-65
2021/11/15 02:54:39;;;;;;;67.40;35.27;;;;;;;7.90;71.62;102600.66;5039146;28;20216;-67
2021/11/15 02:57:06;;;;;;;67.63;36.47;;;;;;;7.51;71.60;102605.56;5021917;28;20540;-66
2021/11/15 02:59:31;;;;;;;73.77;35.63;;;;;;;7.29;73.62;102598.38;5038878;28;20171;-66
2021/11/15 03:01:56;;;;;;;60.63;33.10;;;;;;;7.38;72.52;102597.13;5038919;28;20735;-65
2021/11/15 03:04:22;;;;;;;74.60;35.93;;;;;;;7.87;71.29;102593.59;5039724;28;20459;-65
2021/11/15 03:06:47;;;;;;;68.93;34.40;;;;;;;7.41;72.95;102586.03;5038949;28;20178;-66
2021/11/15 03:09:13;;;;;;;60.80;33.60;;;;;;;7.99;71.36;102598.50;5021749;28;20262;-66
2021/11/15 03:11:38;;;;;;;67.50;34.40;;;;;;;7.56;72.61;102602.44;5039064;28;20186;-65
2021/11/15 03:14:03;;;;;;;69.40;34.23;;;;;;;7.59;72.73;102596.50;5038657;28;20244;-66
2021/11/15 03:16:29;;;;;;;60.17;34.37;;;;;;;7.70;72.35;102594.47;5038756;28;20181;-66
2021/11/15 03:18:54;;;;;;;62.90;32.63;;;;;;;7.53;72.19;102601.34;5039024;28;20194;-67
2021/11/15 03:21:23;;;;;;;63.10;34.13;;;;;;;7.13;74.01;102602.75;5038593;28;20209;-65
2021/11/15 03:23:51;;;;;;;63.23;34.30;;;;;;;7.64;72.00;102587.22;5038801;28;20228;-66
2021/11/15 03:26:17;;;;;;;62.80;32.70;;;;;;;7.19;73.67;102595.28;5040371;28;20719;-66
2021/11/15 03:28:45;;;;;;;69.03;36.17;;;;;;;7.46;73.01;102591.47;5039411;28;20459;-66
2021/11/15 03:31:18;;;;;;;56.03;30.60;;;;;;;6.89;74.51;102586.75;5038220;28;20194;-66
2021/11/15 03:33:45;;;;;;;60.67;32.80;;;;;;;7.01;75.27;102595.19;5038845;28;20384;-67
2021/11/15 03:36:10;;;;;;;64.47;35.33;;;;;;;7.19;74.61;102591.81;5040438;28;20448;-66
2021/11/15 03:38:36;;;;;;;58.03;31.83;;;;;;;7.61;74.38;102588.78;5038683;28;20494;-65
2021/11/15 03:41:03;;;;;;;63.77;34.00;;;;;;;7.06;75.75;102593.75;5037939;28;20544;-65
2021/11/15 03:43:28;;;;;;;61.53;32.27;;;;;;;6.63;76.05;102586.22;5038169;28;20223;-66
2021/11/15 03:45:53;;;;;;;58.43;31.20;;;;;;;6.72;76.74;102591.91;5039334;28;20488;-66
2021/11/15 03:48:20;;;;;;;67.97;33.33;;;;;;;6.87;75.55;102584.06;5038095;28;20221;-65
2021/11/15 03:50:46;;;;;;;63.40;34.47;;;;;;;7.11;75.28;102585.31;5038063;28;20224;-65
2021/11/15 03:53:13;;;;;;;65.60;35.33;;;;;;;7.45;74.31;102581.91;5038365;28;20477;-66
2021/11/15 03:55:39;;;;;;;63.63;32.20;;;;;;;7.60;74.87;102585.28;5038217;28;20406;-66
2021/11/15 03:58:05;;;;;;;61.30;32.10;;;;;;;7.51;73.31;102579.59;5038002;28;20436;-66
2021/11/15 04:00:34;;;;;;;55.27;30.73;;;;;;;7.31;73.61;102584.66;5021104;28;20435;-66
2021/11/15 04:03:04;;;;;;;59.53;31.97;;;;;;;7.47;73.73;102580.28;5038010;28;20409;-66
2021/11/15 04:05:34;;;;;;;61.63;32.27;;;;;;;7.12;74.68;102600.03;5020762;28;20390;-66
2021/11/15 04:08:02;;;;;;;50.43;26.47;;;;;;;6.74;76.10;102590.28;5020690;28;20399;-66
2021/11/15 04:10:35;;;;;;;64.97;32.37;;;;;;;7.10;74.23;102597.38;5020868;28;20733;-66
2021/11/15 04:13:09;;;;;;;53.33;29.43;;;;;;;6.92;75.42;102586.91;5037913;28;20693;-66
2021/11/15 04:15:35;;;;;;;54.60;29.90;;;;;;;6.77;75.00;102596.44;5037831;28;20477;-66
2021/11/15 04:18:01;;;;;;;53.20;29.07;;;;;;;7.08;74.07;102586.91;5037594;28;20523;-66
2021/11/15 04:20:27;;;;;;;53.20;29.10;;;;;;;6.35;76.08;102587.22;5037534;28;20170;-66
2021/11/15 04:22:52;;;;;;;58.90;29.50;;;;;;;6.65;75.34;102592.34;5037955;28;20394;-66
2021/11/15 04:25:18;;;;;;;52.90;30.77;;;;;;;6.55;75.60;102587.47;5037569;28;20778;-66
2021/11/15 04:27:44;;;;;;;54.47;28.77;;;;;;;6.64;75.04;102593.16;5037717;28;20185;-67
2021/11/15 04:30:12;;;;;;;53.00;28.10;;;;;;;6.67;75.04;102595.94;5037898;28;20240;-66
2021/11/15 04:32:38;;;;;;;54.27;30.00;;;;;;;6.90;74.91;102588.50;5037323;28;20421;-66
2021/11/15 04:35:05;;;;;;;62.00;31.93;;;;;;;6.81;74.65;102588.03;5037496;28;20486;-66
2021/11/15 04:37:31;;;;;;;61.80;32.07;;;;;;;7.54;72.88;102584.97;5023761;28;20233;-67
2021/11/15 04:39:57;;;;;;;55.90;29.87;;;;;;;6.50;76.08;102594.09;5041370;28;20857;-66
2021/11/15 04:42:22;;;;;;;57.17;32.73;;;;;;;7.47;72.61;102585.47;5041574;28;20170;-66
2021/11/15 04:44:48;;;;;;;63.03;33.23;;;;;;;7.53;73.29;102586.66;5042057;28;20413;-65
2021/11/15 04:47:13;;;;;;;59.80;31.17;;;;;;;7.28;73.23;102589.69;5041386;28;20217;-66
2021/11/15 04:49:38;;;;;;;62.10;32.73;;;;;;;7.21;74.08;102593.66;5041372;28;20567;-65
2021/11/15 04:52:06;;;;;;;61.40;32.97;;;;;;;6.99;74.23;102581.22;5041301;28;20305;-65
2021/11/15 04:54:31;;;;;;;59.47;31.63;;;;;;;7.31;74.43;102582.06;5041255;28;20174;-67
2021/11/15 04:56:57;;;;;;;54.57;31.80;;;;;;;7.29;73.46;102593.19;5041292;28;20447;-66
2021/11/15 04:59:23;;;;;;;52.87;30.80;;;;;;;6.79;75.39;102584.44;5041028;28;20550;-66
2021/11/15 05:01:48;;;;;;;65.10;34.40;;;;;;;6.61;75.55;102592.09;5040979;28;20547;-66
2021/11/15 05:04:13;;;;;;;60.83;32.17;;;;;;;7.14;75.11;102582.88;5041511;28;20475;-67
2021/11/15 05:06:38;;;;;;;50.03;30.20;;;;;;;6.74;74.88;102594.56;5040986;28;20174;-66
2021/11/15 05:09:04;;;;;;;60.03;33.73;;;;;;;6.83;76.25;102582.13;5041002;28;20170;-65
2021/11/15 05:11:29;;;;;;;62.57;32.23;;;;;;;6.61;75.02;102577.44;5041142;28;20226;-66
2021/11/15 05:13:55;;;;;;;59.37;30.83;;;;;;;6.90;75.20;102585.91;5040810;28;20219;-66
2021/11/15 05:16:21;;;;;;;64.77;35.10;;;;;;;6.87;75.71;102575.38;5040864;28;20170;-65
2021/11/15 05:18:46;;;;;;;59.23;31.63;;;;;;;6.50;75.95;102582.03;5024053;28;20198;-65
2021/11/15 05:21:12;;;;;;;58.27;32.50;;;;;;;7.24;73.54;102598.13;5040607;28;20804;-66
2021/11/15 05:23:39;;;;;;;51.10;30.57;;;;;;;6.42;75.98;102590.19;5040631;28;20189;-66
2021/11/15 05:26:05;;;;;;;56.80;30.87;;;;;;;6.57;74.94;102591.03;5041331;28;20166;-66
2021/11/15 05:28:30;;;;;;;50.07;29.47;;;;;;;6.27;75.80;102588.50;5040660;28;20506;-67
2021/11/15 05:30:55;;;;;;;54.73;30.40;;;;;;;6.11;75.74;102598.78;5040343;28;20209;-66
2021/11/15 05:33:21;;;;;;;51.80;29.83;;;;;;;7.05;73.62;102596.25;5041088;28;20297;-66
2021/11/15 05:35:46;;;;;;;58.17;32.03;;;;;;;6.58;74.57;102605.78;5040538;28;20238;-65
2021/11/15 05:38:11;;;;;;;54.03;32.40;;;;;;;6.98;73.49;102597.63;5040323;28;20205;-66
2021/11/15 05:40:37;;;;;;;49.60;30.73;;;;;;;6.71;73.53;102602.16;5040927;28;20476;-65
2021/11/15 05:43:02;;;;;;;50.17;28.70;;;;;;;6.36;73.70;102604.56;5040176;28;20554;-66
2021/11/15 05:45:28;;;;;;;53.93;31.17;;;;;;;7.15;71.75;102590.75;5040257;28;20188;-65
2021/11/15 05:47:54;;;;;;;55.87;32.90;;;;;;;7.14;71.27;102595.84;5039916;28;20186;-66
2021/11/15 05:50:21;;;;;;;57.30;31.23;;;;;;;6.98;71.24;102589.84;5040160;28;20476;-66
2021/11/15 05:52:47;;;;;;;50.70;29.67;;;;;;;6.57;72.14;102596.22;5039915;28;20514;-65
2021/11/15 05:55:15;;;;;;;48.50;29.03;;;;;;;7.24;70.41;102604.19;5023363;28;20388;-66
2021/11/15 05:57:41;;;;;;;51.70;30.63;;;;;;;7.18;69.62;102592.59;5039919;28;20532;-67
2021/11/15 06:00:10;;;;;;;51.50;29.80;;;;;;;7.10;70.32;102592.19;5040016;28;20496;-67
2021/11/15 06:02:35;;;;;;;48.70;28.93;;;;;;;7.61;68.66;102586.19;5040091;28;20179;-66
2021/11/15 06:05:00;;;;;;;46.20;28.60;;;;;;;7.05;69.72;102589.34;5040024;28;20414;-67
2021/11/15 06:07:26;;;;;;;47.87;27.73;;;;;;;6.76;69.83;102589.47;5042523;28;20671;-66
2021/11/15 06:09:51;;;;;;;46.90;28.27;;;;;;;7.02;70.75;102598.66;5040575;28;20170;-65
2021/11/15 06:12:16;;;;;;;46.47;27.87;;;;;;;7.01;69.86;102596.88;5039993;28;20432;-66
2021/11/15 06:14:42;;;;;;;43.67;28.77;;;;;;;7.46;68.00;102605.34;5039926;28;20174;-66
2021/11/15 06:17:07;;;;;;;46.90;27.80;;;;;;;6.84;69.10;102599.44;5039989;28;20265;-66
2021/11/15 06:19:33;;;;;;;46.23;28.17;;;;;;;7.49;68.03;102596.81;5040018;28;20264;-66
2021/11/15 06:21:58;;;;;;;45.47;28.03;;;;;;;7.48;67.97;102600.22;5039526;28;20196;-66
2021/11/15 06:24:23;;;;;;;45.57;27.70;;;;;;;7.58;68.35;102594.72;5040257;28;20197;-66
2021/11/15 06:26:49;;;;;;;42.10;26.10;;;;;;;7.32;68.64;102604.63;5039677;28;20174;-65
2021/11/15 06:29:14;;;;;;;43.73;28.93;;;;;;;7.47;68.17;102603.63;5039709;28;20217;-66
2021/11/15 06:31:40;;;;;;;45.87;28.57;;;;;;;7.19;68.90;102597.88;5040193;28;20190;-65
2021/11/15 06:34:05;;;;;;;44.17;27.00;;;;;;;6.64;68.95;102602.63;5039550;28;20178;-65
2021/11/15 06:36:31;;;;;;;41.63;26.43;;;;;;;6.86;69.95;102607.31;5039381;28;20181;-65
2021/11/15 06:38:58;;;;;;;41.77;26.73;;;;;;;7.63;68.78;102600.13;5039864;28;20205;-66
2021/11/15 06:41:24;;;;;;;43.63;28.20;;;;;;;7.24;67.93;102613.69;5039301;28;20269;-65
2021/11/15 06:43:49;;;;;;;37.53;25.13;;;;;;;7.18;68.28;102614.25;5022118;28;20850;-66
2021/11/15 06:46:15;;;;;;;48.33;27.57;;;;;;;6.76;69.70;102612.81;5039776;28;20203;-66
2021/11/15 06:48:41;;;;;;;42.83;26.60;;;;;;;6.83;69.52;102607.13;5039286;28;20552;-66
2021/11/15 06:51:11;;;;;;;46.00;27.60;;;;;;;7.29;67.80;102607.03;5038778;28;20198;-66
2021/11/15 06:53:37;;;;;;;48.17;27.30;;;;;;;7.55;67.22;102608.41;5022028;28;20591;-66
2021/11/15 06:56:04;;;;;;;48.13;30.10;;;;;;;7.35;67.42;102614.28;5039122;28;20421;-66
2021/11/15 06:58:30;;;;;;;38.63;26.30;;;;;;;7.17;68.86;102614.16;5039051;28;20463;-67
2021/11/15 07:00:55;;;;;;;43.67;26.83;;;;;;;7.23;67.74;102612.78;5022271;28;20391;-66
2021/11/15 07:03:20;;;;;;;38.23;27.00;;;;;;;7.29;68.49;102622.59;5038998;28;20193;-67
2021/11/15 07:05:46;;;;;;;43.63;27.10;;;;;;;7.33;68.46;102610.69;5039002;28;20192;-66
2021/11/15 07:08:11;;;;;;;42.87;27.23;;;;;;;7.11;68.78;102614.72;5039463;28;20245;-66
2021/11/15 07:10:37;;;;;;;44.57;28.57;;;;;;;7.65;67.22;102607.19;5038900;28;20249;-68
2021/11/15 07:13:03;;;;;;;46.30;27.47;;;;;;;7.62;66.88;102601.84;5038747;28;20171;-67
2021/11/15 07:15:28;;;;;;;38.80;26.60;;;;;;;7.06;68.17;102611.91;5039486;28;20178;-66
2021/11/15 07:17:53;;;;;;;48.00;28.27;;;;;;;7.42;67.63;102612.06;5038605;28;20213;-65
2021/11/15 07:20:19;;;;;;;43.17;26.17;;;;;;;7.81;67.47;102606.28;5038716;28;20182;-66
2021/11/15 07:22:48;;;;;;;42.33;26.33;;;;;;;7.68;66.73;102599.53;5039017;28;20167;-66
2021/11/15 07:25:15;;;;;;;40.30;27.33;;;;;;;7.60;67.54;102608.66;5038772;28;20177;-66
2021/11/15 07:27:41;;;;;;;41.57;26.57;;;;;;;7.21;67.47;102606.63;5038625;28;20391;-66
2021/11/15 07:30:07;;;;;;;46.60;26.60;;;;;;;7.30;67.93;102610.53;5039158;28;20411;-66
2021/11/15 07:32:32;;;;;;;41.00;27.43;;;;;;;7.58;66.69;102607.69;5038623;28;20182;-66
2021/11/15 07:34:58;;;;;;;43.90;27.00;;;;;;;7.22;67.46;102602.34;5038543;28;20414;-66
2021/11/15 07:37:23;;;;;;;38.20;26.10;;;;;;;7.56;66.78;102610.22;5038896;28;20249;-66
2021/11/15 07:39:48;;;;;;;38.80;26.53;;;;;;;7.46;67.39;102607.06;5038432;28;20435;-65
2021/11/15 07:42:16;;;;;;;41.03;26.30;;;;;;;8.22;65.48;102594.44;5038231;28;20193;-66
2021/11/15 07:44:41;;;;;;;44.73;27.87;;;;;;;7.27;67.08;102600.88;5021595;28;20174;-66
2021/11/15 07:47:07;;;;;;;42.50;26.70;;;;;;;7.54;66.47;102597.97;5038218;28;20438;-66
2021/11/15 07:49:32;;;;;;;48.30;28.47;;;;;;;7.44;66.99;102593.09;5038196;28;20174;-66
2021/11/15 07:51:58;;;;;;;40.03;25.90;;;;;;;7.68;65.23;102602.16;5038482;28;20611;-66
2021/11/15 07:54:23;;;;;;;43.40;27.00;;;;;;;7.43;67.47;102597.41;5038198;28;20181;-66
2021/11/15 07:56:49;;;;;;;44.27;29.03;;;;;;;7.81;66.19;102595.00;5038208;28;20206;-65
2021/11/15 07:59:14;;;;;;;39.07;26.03;;;;;;;7.86;66.48;102596.09;5037894;28;20490;-65
2021/11/15 08:01:40;;;;;;;47.43;25.53;;;;;;;7.36;66.79;102603.06;5020688;28;20471;-65
2021/11/15 08:04:05;;;;;;;39.60;25.60;;;;;;;7.57;65.55;102595.50;5038376;28;20245;-65
2021/11/15 08:06:30;;;;;;;39.90;26.50;;;;;;;7.81;65.71;102602.81;5038031;28;20501;-66
2021/11/15 08:08:56;;;;;;;40.03;27.27;;;;;;;8.03;66.34;102597.84;5037766;28;20178;-65
2021/11/15 08:11:24;;;;;;;40.93;25.53;;;;;;;7.52;65.36;102596.97;5037676;28;20559;-66
2021/11/15 08:13:49;;;;;;;33.80;24.07;;;;;;;7.13;66.77;102601.84;5037643;28;20185;-66
2021/11/15 08:16:14;;;;;;;38.60;25.83;;;;;;;7.12;66.30;102597.44;5037730;28;20388;-65
2021/11/15 08:18:41;;;;;;;36.13;24.97;;;;;;;7.17;66.16;102614.16;5038089;28;20205;-65
2021/11/15 08:21:12;;;;;;;38.00;24.97;;;;;;;7.14;66.73;102608.81;5037602;28;20182;-65
2021/11/15 08:23:37;;;;;;;42.77;27.20;;;;;;;7.74;65.51;102604.19;5037568;28;20861;-66
2021/11/15 08:26:31;;;;;;;37.80;24.90;;;;;;;6.94;67.63;102606.06;5020828;28;20388;-66
2021/11/15 08:29:01;;;;;;;39.07;26.80;;;;;;;7.55;66.28;102610.09;5037461;28;20213;-65
2021/11/15 08:31:28;;;;;;;38.57;25.20;;;;;;;7.06;67.67;102621.34;5037359;28;20467;-65
2021/11/15 08:33:53;;;;;;;40.10;24.83;;;;;;;7.09;66.87;102613.78;5037580;28;20493;-65
2021/11/15 08:36:19;;;;;;;46.47;26.70;;;;;;;7.25;67.32;102620.66;5037548;28;20441;-65
2021/11/15 08:39:04;;;;;;;42.50;26.87;;;;;;;7.02;67.59;102628.09;5037995;28;20192;-66
2021/11/15 08:41:34;;;;;;;40.30;25.93;;;;;;;7.18;66.66;102626.31;5037503;28;20171;-67
2021/11/15 08:44:01;;;;;;;41.23;27.80;;;;;;;7.41;67.66;102624.97;5035510;28;20414;-64
2021/11/15 08:46:28;;;;;;;40.00;27.17;;;;;;;7.98;66.29;102624.41;5037582;28;20387;-63
2021/11/15 08:48:54;;;;;;;40.97;27.80;;;;;;;8.20;64.65;102616.88;5037500;28;20665;-63
2021/11/15 08:51:19;;;;;;;46.67;29.30;;;;;;;8.31;63.66;102612.22;5037374;28;20559;-63
2021/11/15 08:53:45;;;;;;;41.27;26.50;;;;;;;7.41;67.66;102620.69;5037467;28;20434;-64
2021/11/15 08:56:11;;;;;;;46.00;29.63;;;;;;;7.37;67.39;102629.13;5037552;28;20274;-64
2021/11/15 08:58:38;;;;;;;39.60;26.50;;;;;;;7.23;67.65;102617.97;5037425;28;20860;-63
2021/11/15 09:01:04;;;;;;;42.40;28.47;;;;;;;7.55;66.65;102618.81;5037413;28;20171;-65
2021/11/15 09:03:29;;;;;;;40.53;27.20;;;;;;;7.25;67.45;102634.53;5037744;28;20691;-65
2021/11/15 09:05:54;;;;;;;39.43;26.70;;;;;;;7.23;67.37;102614.50;5037361;28;20447;-64
2021/11/15 09:08:21;;;;;;;40.40;27.77;;;;;;;7.51;66.49;102614.25;5037570;28;20175;-65
2021/11/15 09:10:47;;;;;;;44.83;28.37;;;;;;;7.68;65.86;102611.66;5020902;28;20186;-64
2021/11/15 09:13:12;;;;;;;44.57;29.90;;;;;;;7.36;66.60;102616.94;5037487;28;20400;-64
2021/11/15 09:15:38;;;;;;;41.50;26.33;;;;;;;7.12;66.23;102608.75;5037786;28;20178;-64
2021/11/15 09:18:03;;;;;;;42.20;26.53;;;;;;;7.29;66.37;102619.13;5037869;28;20194;-64
2021/11/15 09:20:29;;;;;;;42.33;27.87;;;;;;;7.20;67.14;102619.53;5020267;28;20177;-64
2021/11/15 09:22:54;;;;;;;39.53;26.30;;;;;;;7.65;66.20;102609.78;5037667;28;20228;-65
2021/11/15 09:25:20;;;;;;;40.27;28.20;;;;;;;7.51;65.89;102615.94;5024019;28;20179;-64
2021/11/15 09:27:45;;;;;;;38.80;24.47;;;;;;;6.99;67.38;102611.47;5040801;28;20166;-64
2021/11/15 09:30:11;;;;;;;40.57;27.90;;;;;;;7.85;65.46;102617.72;5040714;28;20178;-64
2021/11/15 09:32:38;;;;;;;36.23;24.97;;;;;;;7.63;65.17;102621.81;5040960;28;20185;-64
2021/11/15 09:35:04;;;;;;;43.63;27.63;;;;;;;7.24;66.25;102624.06;5040621;28;20402;-64
2021/11/15 09:37:29;;;;;;;41.00;28.37;;;;;;;7.34;66.19;102615.94;5040546;28;20693;-64
2021/11/15 09:39:57;;;;;;;43.17;28.27;;;;;;;7.94;65.22;102623.34;5040827;28;20496;-66
2021/11/15 09:42:23;;;;;;;41.00;26.07;;;;;;;7.32;66.04;102620.19;5040421;28;20547;-65
2021/11/15 09:44:49;;;;;;;43.60;27.87;;;;;;;8.17;63.70;102619.34;5040382;28;20414;-65
2021/11/15 09:47:15;;;;;;;40.37;26.67;;;;;;;7.25;65.92;102631.03;5023911;28;20162;-64
2021/11/15 09:49:41;;;;;;;43.40;27.67;;;;;;;7.44;65.42;102630.28;5040309;28;20554;-67
2021/11/15 09:52:08;;;;;;;35.37;26.40;;;;;;;7.08;68.03;102631.00;5040042;28;20551;-65
2021/11/15 09:54:34;;;;;;;36.30;26.20;;;;;;;7.74;65.35;102618.06;5040669;28;20177;-65
2021/11/15 09:56:59;;;;;;;37.97;26.60;;;;;;;7.85;65.71;102615.13;5040123;28;20391;-70
2021/11/15 09:59:27;;;;;;;34.20;25.23;;;;;;;8.09;64.31;102618.94;5040199;28;20232;-71
2021/11/15 10:01:53;;;;;;;36.00;24.90;;;;;;;7.12;65.81;102620.78;5040412;28;20174;-66
2021/11/15 10:04:19;;;;;;;40.83;27.20;;;;;;;7.52;63.87;102618.66;5039897;28;20498;-67
2021/11/15 10:06:46;;;;;;;37.10;24.47;;;;;;;7.38;64.98;102619.63;5040113;28;20202;-65
2021/11/15 10:09:11;;;;;;;44.57;27.07;;;;;;;7.12;65.46;102620.78;5040286;28;20166;-66
2021/11/15 10:11:48;;;;;;;36.50;25.00;;;;;;;7.17;65.98;102621.94;5039824;28;20406;-68
2021/11/15 10:14:15;;;;;;;40.70;25.97;;;;;;;7.45;65.25;102620.84;5040235;28;20447;-71
2021/11/15 10:16:47;;;;;;;40.37;26.17;;;;;;;7.57;64.94;102611.97;5040016;28;20619;-69
2021/11/15 10:19:15;;;;;;;37.57;26.60;;;;;;;8.13;63.54;102616.50;5039690;28;20443;-67
2021/11/15 10:22:01;;;;;;;37.63;25.93;;;;;;;7.68;64.38;102604.75;5039447;28;20421;-67
2021/11/15 10:24:39;;;;;;;37.73;24.63;;;;;;;7.25;65.83;102610.28;5039733;28;20743;-66
2021/11/15 10:27:10;;;;;;;38.23;26.97;;;;;;;7.66;64.71;102606.38;5039489;28;20498;-67
2021/11/15 10:29:42;;;;;;;43.73;27.50;;;;;;;7.52;64.30;102608.28;5039319;28;20421;-66
2021/11/15 10:32:14;;;;;;;41.70;25.83;;;;;;;7.47;64.47;102603.63;5039088;28;20437;-66
2021/11/15 10:34:48;;;;;;;38.97;26.30;;;;;;;7.14;65.24;102603.63;5039191;28;20391;-64
2021/11/15 10:37:19;;;;;;;37.37;25.90;;;;;;;8.04;63.38;102599.66;5039326;28;20425;-65
2021/11/15 10:39:54;;;;;;;38.83;24.97;;;;;;;7.61;64.27;102591.38;5039270;28;20417;-66
2021/11/15 10:42:31;;;;;;;36.53;25.90;;;;;;;7.84;63.55;102595.16;5039102;28;20768;-67
2021/11/15 10:45:09;;;;;;;34.23;23.77;;;;;;;7.57;64.12;102592.91;5039189;28;20395;-65
2021/11/15 10:47:40;;;;;;;36.97;24.80;;;;;;;7.43;64.32;102597.41;5039279;28;20435;-65
2021/11/15 10:50:10;;;;;;;34.23;24.20;;;;;;;7.57;64.09;102583.41;5039237;28;20420;-67
2021/11/15 10:52:37;;;;;;;35.90;25.60;;;;;;;7.57;63.72;102587.72;5038566;28;20468;-66
2021/11/15 10:55:05;;;;;;;39.53;26.10;;;;;;;7.56;64.11;102598.91;5039122;28;20449;-67
2021/11/15 10:57:46;;;;;;;37.20;25.33;;;;;;;7.78;63.27;102595.75;5039461;28;20427;-66
2021/11/15 11:00:18;;;;;;;38.00;25.97;;;;;;;7.68;64.06;102593.47;5039142;28;20416;-66
2021/11/15 11:02:46;;;;;;;38.67;25.90;;;;;;;7.37;64.91;102602.25;5038785;28;20406;-67
2021/11/15 11:05:23;;;;;;;38.10;26.80;;;;;;;7.82;63.92;102588.97;5038812;28;20474;-67
2021/11/15 11:08:10;;;;;;;40.53;26.97;;;;;;;8.51;61.48;102588.94;5038901;28;20416;-66
2021/11/15 11:10:42;;;;;;;39.90;27.83;;;;;;;8.24;63.00;102582.44;5038613;28;20717;-66
2021/11/15 11:13:10;;;;;;;39.00;25.90;;;;;;;7.44;65.13;102578.41;5038573;28;20404;-66
2021/11/15 11:18:18;;;;;;;39.87;26.20;;;;;;;8.03;63.41;102571.00;5037710;28;20479;-66